Klondyke, Arizona
Current Conditions -  °F | °C
As of 1:51 AM on Saturday 01 Nov 2014 (Local Time) from KSAD Reporting Station
Clear Clear  
Wind Chill: 64°   Ceiling: Unl
Heat Index: 64°   Visibility: 10mi
Dew Point: 48°   Wind: 8mph
Humidity: 56%   Direction: 170°S
Pressure: 29.99"   Gusts: NA
Location:  32.5598°N, 110.08°W
Report Text: KSAD 010851Z AUTO 17007KT 10SM CLR 18/09 A2999 RMK AO2 SLP113 T01780089 56004
Loading
Personal Weather Stations






























Interactive Weather Map
Tropical Storm Tracking
New forecast layout! Learn more

10-Day Weather Forecast

Advertisements
Track Severe Weather on mobile